sensor_id;sensor_type;location;lat;lon;timestamp;P1;durP1;ratioP1;P2;durP2;ratioP2
71296;SDS011;59082;50.658;4.608;2022-08-25T00:01:00;4.68;;;2.53;;
71296;SDS011;59082;50.658;4.608;2022-08-25T00:03:25;3.28;;;2.90;;
71296;SDS011;59082;50.658;4.608;2022-08-25T00:05:51;4.00;;;3.03;;
71296;SDS011;59082;50.658;4.608;2022-08-25T00:08:16;3.07;;;2.83;;
71296;SDS011;59082;50.658;4.608;2022-08-25T00:10:42;4.82;;;3.58;;
71296;SDS011;59082;50.658;4.608;2022-08-25T00:13:07;6.77;;;3.50;;
71296;SDS011;59082;50.658;4.608;2022-08-25T00:15:33;6.15;;;2.95;;
71296;SDS011;59082;50.658;4.608;2022-08-25T00:17:59;6.33;;;2.90;;
71296;SDS011;59082;50.658;4.608;2022-08-25T00:20:26;4.25;;;3.20;;
71296;SDS011;59082;50.658;4.608;2022-08-25T00:22:53;6.88;;;3.63;;
71296;SDS011;59082;50.658;4.608;2022-08-25T00:25:20;4.70;;;3.30;;
71296;SDS011;59082;50.658;4.608;2022-08-25T00:27:47;4.32;;;3.22;;
71296;SDS011;59082;50.658;4.608;2022-08-25T00:30:13;4.50;;;3.20;;
71296;SDS011;59082;50.658;4.608;2022-08-25T00:32:40;5.35;;;2.90;;
71296;SDS011;59082;50.658;4.608;2022-08-25T00:35:06;4.40;;;3.20;;
71296;SDS011;59082;50.658;4.608;2022-08-25T00:37:31;4.83;;;4.20;;
71296;SDS011;59082;50.658;4.608;2022-08-25T00:39:57;6.03;;;4.00;;
71296;SDS011;59082;50.658;4.608;2022-08-25T00:42:23;5.87;;;3.73;;
71296;SDS011;59082;50.658;4.608;2022-08-25T00:44:49;6.30;;;4.13;;
71296;SDS011;59082;50.658;4.608;2022-08-25T00:47:15;5.03;;;4.17;;
71296;SDS011;59082;50.658;4.608;2022-08-25T00:49:42;4.20;;;3.80;;
71296;SDS011;59082;50.658;4.608;2022-08-25T00:52:24;6.25;;;4.20;;
71296;SDS011;59082;50.658;4.608;2022-08-25T00:55:00;5.50;;;4.53;;
71296;SDS011;59082;50.658;4.608;2022-08-25T00:57:33;5.50;;;4.50;;
71296;SDS011;59082;50.658;4.608;2022-08-25T01:00:08;7.47;;;5.15;;
71296;SDS011;59082;50.658;4.608;2022-08-25T01:02:38;4.63;;;4.22;;
71296;SDS011;59082;50.658;4.608;2022-08-25T01:05:04;5.60;;;4.97;;
71296;SDS011;59082;50.658;4.608;2022-08-25T01:07:30;6.78;;;4.80;;
71296;SDS011;59082;50.658;4.608;2022-08-25T01:09:55;6.95;;;4.85;;
71296;SDS011;59082;50.658;4.608;2022-08-25T01:12:21;5.23;;;4.70;;
71296;SDS011;59082;50.658;4.608;2022-08-25T01:14:47;6.10;;;5.00;;
71296;SDS011;59082;50.658;4.608;2022-08-25T01:17:14;5.87;;;4.93;;
71296;SDS011;59082;50.658;4.608;2022-08-25T01:19:39;5.57;;;4.80;;
71296;SDS011;59082;50.658;4.608;2022-08-25T01:22:06;6.53;;;4.78;;
71296;SDS011;59082;50.658;4.608;2022-08-25T01:24:51;8.02;;;4.80;;
71296;SDS011;59082;50.658;4.608;2022-08-25T01:27:23;5.60;;;4.80;;
71296;SDS011;59082;50.658;4.608;2022-08-25T01:29:48;5.78;;;4.82;;
71296;SDS011;59082;50.658;4.608;2022-08-25T01:32:13;5.97;;;4.30;;
71296;SDS011;59082;50.658;4.608;2022-08-25T01:34:40;7.93;;;4.77;;
71296;SDS011;59082;50.658;4.608;2022-08-25T01:37:08;4.80;;;4.32;;
71296;SDS011;59082;50.658;4.608;2022-08-25T01:39:34;6.43;;;4.20;;
71296;SDS011;59082;50.658;4.608;2022-08-25T01:44:33;4.50;;;4.10;;
71296;SDS011;59082;50.658;4.608;2022-08-25T01:47:01;4.53;;;4.07;;
71296;SDS011;59082;50.658;4.608;2022-08-25T01:49:27;4.97;;;4.47;;
71296;SDS011;59082;50.658;4.608;2022-08-25T01:51:59;5.35;;;4.50;;
71296;SDS011;59082;50.658;4.608;2022-08-25T01:54:29;5.57;;;4.53;;
71296;SDS011;59082;50.658;4.608;2022-08-25T01:56:54;5.33;;;4.77;;
71296;SDS011;59082;50.658;4.608;2022-08-25T01:59:21;7.15;;;5.10;;
71296;SDS011;59082;50.658;4.608;2022-08-25T02:01:47;7.17;;;4.47;;
71296;SDS011;59082;50.658;4.608;2022-08-25T02:04:13;6.88;;;4.78;;
71296;SDS011;59082;50.658;4.608;2022-08-25T02:06:38;9.00;;;5.23;;
71296;SDS011;59082;50.658;4.608;2022-08-25T02:09:06;7.45;;;4.63;;
71296;SDS011;59082;50.658;4.608;2022-08-25T02:11:35;5.32;;;4.82;;
71296;SDS011;59082;50.658;4.608;2022-08-25T02:14:02;7.00;;;4.60;;
71296;SDS011;59082;50.658;4.608;2022-08-25T02:16:30;5.05;;;4.05;;
71296;SDS011;59082;50.658;4.608;2022-08-25T02:18:58;5.72;;;4.68;;
71296;SDS011;59082;50.658;4.608;2022-08-25T02:21:24;5.55;;;4.40;;
71296;SDS011;59082;50.658;4.608;2022-08-25T02:23:50;8.37;;;4.60;;
71296;SDS011;59082;50.658;4.608;2022-08-25T02:26:16;5.78;;;3.80;;
71296;SDS011;59082;50.658;4.608;2022-08-25T02:28:43;5.28;;;4.07;;
71296;SDS011;59082;50.658;4.608;2022-08-25T02:31:13;4.73;;;3.73;;
71296;SDS011;59082;50.658;4.608;2022-08-25T02:33:39;4.35;;;3.95;;
71296;SDS011;59082;50.658;4.608;2022-08-25T02:36:05;4.10;;;3.70;;
71296;SDS011;59082;50.658;4.608;2022-08-25T02:38:31;4.67;;;3.77;;
71296;SDS011;59082;50.658;4.608;2022-08-25T02:40:58;5.88;;;3.65;;
71296;SDS011;59082;50.658;4.608;2022-08-25T02:43:25;4.45;;;3.88;;
71296;SDS011;59082;50.658;4.608;2022-08-25T02:45:52;4.40;;;4.00;;
71296;SDS011;59082;50.658;4.608;2022-08-25T02:48:18;6.35;;;3.88;;
71296;SDS011;59082;50.658;4.608;2022-08-25T02:50:48;5.25;;;4.28;;
71296;SDS011;59082;50.658;4.608;2022-08-25T02:53:20;3.72;;;3.42;;
71296;SDS011;59082;50.658;4.608;2022-08-25T02:55:46;4.27;;;3.87;;
71296;SDS011;59082;50.658;4.608;2022-08-25T02:58:12;7.97;;;3.63;;
71296;SDS011;59082;50.658;4.608;2022-08-25T03:00:38;4.57;;;3.70;;
71296;SDS011;59082;50.658;4.608;2022-08-25T03:03:04;5.55;;;3.30;;
71296;SDS011;59082;50.658;4.608;2022-08-25T03:05:29;4.80;;;2.93;;
71296;SDS011;59082;50.658;4.608;2022-08-25T03:07:55;4.93;;;3.20;;
71296;SDS011;59082;50.658;4.608;2022-08-25T03:10:21;4.50;;;2.63;;
71296;SDS011;59082;50.658;4.608;2022-08-25T03:12:46;4.88;;;3.35;;
71296;SDS011;59082;50.658;4.608;2022-08-25T03:15:12;4.50;;;2.60;;
71296;SDS011;59082;50.658;4.608;2022-08-25T03:17:45;6.80;;;2.65;;
71296;SDS011;59082;50.658;4.608;2022-08-25T03:20:13;4.47;;;2.97;;
71296;SDS011;59082;50.658;4.608;2022-08-25T03:22:39;3.57;;;2.80;;
71296;SDS011;59082;50.658;4.608;2022-08-25T03:25:05;3.83;;;3.00;;
71296;SDS011;59082;50.658;4.608;2022-08-25T03:27:50;6.50;;;3.10;;
71296;SDS011;59082;50.658;4.608;2022-08-25T03:30:16;3.47;;;2.67;;
71296;SDS011;59082;50.658;4.608;2022-08-25T03:32:42;6.28;;;3.53;;
71296;SDS011;59082;50.658;4.608;2022-08-25T03:35:07;5.78;;;3.05;;
71296;SDS011;59082;50.658;4.608;2022-08-25T03:37:33;5.50;;;3.00;;
71296;SDS011;59082;50.658;4.608;2022-08-25T03:40:00;5.78;;;3.38;;
71296;SDS011;59082;50.658;4.608;2022-08-25T03:42:28;5.50;;;2.67;;
71296;SDS011;59082;50.658;4.608;2022-08-25T03:44:53;3.80;;;3.17;;
71296;SDS011;59082;50.658;4.608;2022-08-25T03:47:19;3.77;;;2.93;;
71296;SDS011;59082;50.658;4.608;2022-08-25T03:49:44;4.50;;;2.40;;
71296;SDS011;59082;50.658;4.608;2022-08-25T03:52:10;5.47;;;3.40;;
71296;SDS011;59082;50.658;4.608;2022-08-25T03:54:36;5.03;;;3.20;;
71296;SDS011;59082;50.658;4.608;2022-08-25T03:57:01;3.60;;;3.10;;
71296;SDS011;59082;50.658;4.608;2022-08-25T03:59:28;4.18;;;2.83;;
71296;SDS011;59082;50.658;4.608;2022-08-25T04:01:53;3.87;;;2.70;;
71296;SDS011;59082;50.658;4.608;2022-08-25T04:04:18;4.13;;;2.70;;
71296;SDS011;59082;50.658;4.608;2022-08-25T04:06:44;5.47;;;2.73;;
71296;SDS011;59082;50.658;4.608;2022-08-25T04:09:11;3.90;;;2.70;;
71296;SDS011;59082;50.658;4.608;2022-08-25T04:11:37;5.30;;;2.88;;
71296;SDS011;59082;50.658;4.608;2022-08-25T04:14:03;5.28;;;2.42;;
71296;SDS011;59082;50.658;4.608;2022-08-25T04:16:30;2.90;;;2.60;;
71296;SDS011;59082;50.658;4.608;2022-08-25T04:18:58;4.80;;;2.90;;
71296;SDS011;59082;50.658;4.608;2022-08-25T04:21:25;3.90;;;2.60;;
71296;SDS011;59082;50.658;4.608;2022-08-25T04:23:51;4.73;;;2.90;;
71296;SDS011;59082;50.658;4.608;2022-08-25T04:26:20;5.82;;;2.80;;
71296;SDS011;59082;50.658;4.608;2022-08-25T04:28:48;3.65;;;2.83;;
71296;SDS011;59082;50.658;4.608;2022-08-25T04:31:17;5.37;;;2.80;;
71296;SDS011;59082;50.658;4.608;2022-08-25T04:33:43;5.73;;;3.30;;
71296;SDS011;59082;50.658;4.608;2022-08-25T04:36:12;4.13;;;2.60;;
71296;SDS011;59082;50.658;4.608;2022-08-25T04:38:39;4.43;;;2.75;;
71296;SDS011;59082;50.658;4.608;2022-08-25T04:41:06;7.85;;;2.70;;
71296;SDS011;59082;50.658;4.608;2022-08-25T04:43:33;9.43;;;2.50;;
71296;SDS011;59082;50.658;4.608;2022-08-25T04:46:03;5.10;;;2.63;;
71296;SDS011;59082;50.658;4.608;2022-08-25T04:48:35;8.32;;;2.67;;
71296;SDS011;59082;50.658;4.608;2022-08-25T04:51:04;7.40;;;2.83;;
71296;SDS011;59082;50.658;4.608;2022-08-25T04:53:31;5.30;;;2.63;;
71296;SDS011;59082;50.658;4.608;2022-08-25T04:55:58;11.15;;;2.70;;
71296;SDS011;59082;50.658;4.608;2022-08-25T04:58:24;4.50;;;2.70;;
71296;SDS011;59082;50.658;4.608;2022-08-25T05:00:50;2.97;;;2.50;;
71296;SDS011;59082;50.658;4.608;2022-08-25T05:03:16;8.80;;;2.88;;
71296;SDS011;59082;50.658;4.608;2022-08-25T05:05:41;10.03;;;2.20;;
71296;SDS011;59082;50.658;4.608;2022-08-25T05:08:07;4.63;;;2.50;;
71296;SDS011;59082;50.658;4.608;2022-08-25T05:10:32;4.87;;;2.43;;
71296;SDS011;59082;50.658;4.608;2022-08-25T05:12:58;9.00;;;2.50;;
71296;SDS011;59082;50.658;4.608;2022-08-25T05:15:27;4.40;;;2.63;;
71296;SDS011;59082;50.658;4.608;2022-08-25T05:18:10;4.13;;;2.88;;
71296;SDS011;59082;50.658;4.608;2022-08-25T05:20:36;6.07;;;2.33;;
71296;SDS011;59082;50.658;4.608;2022-08-25T05:23:02;4.23;;;2.47;;
71296;SDS011;59082;50.658;4.608;2022-08-25T05:25:28;6.57;;;3.17;;
71296;SDS011;59082;50.658;4.608;2022-08-25T05:27:54;5.17;;;2.27;;
71296;SDS011;59082;50.658;4.608;2022-08-25T05:30:20;4.40;;;2.80;;
71296;SDS011;59082;50.658;4.608;2022-08-25T05:32:45;5.20;;;2.20;;
71296;SDS011;59082;50.658;4.608;2022-08-25T05:35:10;3.47;;;2.17;;
71296;SDS011;59082;50.658;4.608;2022-08-25T05:37:36;6.55;;;2.25;;
71296;SDS011;59082;50.658;4.608;2022-08-25T05:40:02;4.10;;;2.23;;
71296;SDS011;59082;50.658;4.608;2022-08-25T05:42:32;3.33;;;2.10;;
71296;SDS011;59082;50.658;4.608;2022-08-25T05:44:57;5.17;;;2.57;;
71296;SDS011;59082;50.658;4.608;2022-08-25T05:47:23;5.80;;;2.28;;
71296;SDS011;59082;50.658;4.608;2022-08-25T05:49:48;4.23;;;2.30;;
71296;SDS011;59082;50.658;4.608;2022-08-25T05:52:14;2.83;;;1.97;;
71296;SDS011;59082;50.658;4.608;2022-08-25T05:54:40;5.43;;;2.28;;
71296;SDS011;59082;50.658;4.608;2022-08-25T05:57:06;3.28;;;2.30;;
71296;SDS011;59082;50.658;4.608;2022-08-25T05:59:31;4.70;;;3.13;;
71296;SDS011;59082;50.658;4.608;2022-08-25T06:01:57;6.53;;;2.80;;
71296;SDS011;59082;50.658;4.608;2022-08-25T06:04:41;8.30;;;2.83;;
71296;SDS011;59082;50.658;4.608;2022-08-25T06:07:07;7.55;;;2.40;;
71296;SDS011;59082;50.658;4.608;2022-08-25T06:09:33;4.45;;;2.35;;
71296;SDS011;59082;50.658;4.608;2022-08-25T06:11:58;3.40;;;2.30;;
71296;SDS011;59082;50.658;4.608;2022-08-25T06:14:24;5.27;;;2.30;;
71296;SDS011;59082;50.658;4.608;2022-08-25T06:16:50;5.47;;;2.22;;
71296;SDS011;59082;50.658;4.608;2022-08-25T06:19:15;6.88;;;2.45;;
71296;SDS011;59082;50.658;4.608;2022-08-25T06:21:41;5.33;;;2.40;;
71296;SDS011;59082;50.658;4.608;2022-08-25T06:24:08;8.65;;;2.30;;
71296;SDS011;59082;50.658;4.608;2022-08-25T06:26:34;4.88;;;3.28;;
71296;SDS011;59082;50.658;4.608;2022-08-25T06:29:00;5.05;;;2.10;;
71296;SDS011;59082;50.658;4.608;2022-08-25T06:31:26;4.40;;;2.13;;
71296;SDS011;59082;50.658;4.608;2022-08-25T06:33:51;5.60;;;2.45;;
71296;SDS011;59082;50.658;4.608;2022-08-25T06:36:17;6.77;;;2.37;;
71296;SDS011;59082;50.658;4.608;2022-08-25T06:38:44;4.13;;;2.67;;
71296;SDS011;59082;50.658;4.608;2022-08-25T06:41:10;3.20;;;1.80;;
71296;SDS011;59082;50.658;4.608;2022-08-25T06:43:36;5.13;;;2.08;;
71296;SDS011;59082;50.658;4.608;2022-08-25T06:46:10;5.80;;;2.35;;
71296;SDS011;59082;50.658;4.608;2022-08-25T06:48:37;3.88;;;2.30;;
71296;SDS011;59082;50.658;4.608;2022-08-25T06:51:07;4.00;;;2.40;;
71296;SDS011;59082;50.658;4.608;2022-08-25T06:53:34;7.78;;;2.47;;
71296;SDS011;59082;50.658;4.608;2022-08-25T06:56:00;6.57;;;2.55;;
71296;SDS011;59082;50.658;4.608;2022-08-25T06:58:26;5.72;;;3.08;;
71296;SDS011;59082;50.658;4.608;2022-08-25T07:00:51;6.43;;;2.20;;
71296;SDS011;59082;50.658;4.608;2022-08-25T07:03:18;9.13;;;2.47;;
71296;SDS011;59082;50.658;4.608;2022-08-25T07:05:52;10.50;;;2.30;;
71296;SDS011;59082;50.658;4.608;2022-08-25T07:08:20;8.98;;;2.72;;
71296;SDS011;59082;50.658;4.608;2022-08-25T07:10:46;6.65;;;2.08;;
71296;SDS011;59082;50.658;4.608;2022-08-25T07:13:13;6.63;;;2.33;;
71296;SDS011;59082;50.658;4.608;2022-08-25T07:15:39;5.90;;;2.17;;
71296;SDS011;59082;50.658;4.608;2022-08-25T07:18:07;6.60;;;2.10;;
71296;SDS011;59082;50.658;4.608;2022-08-25T07:20:33;7.55;;;2.28;;
71296;SDS011;59082;50.658;4.608;2022-08-25T07:22:59;5.13;;;2.10;;
71296;SDS011;59082;50.658;4.608;2022-08-25T07:25:25;4.78;;;2.20;;
71296;SDS011;59082;50.658;4.608;2022-08-25T07:27:51;3.55;;;2.10;;
71296;SDS011;59082;50.658;4.608;2022-08-25T07:30:16;4.20;;;2.43;;
71296;SDS011;59082;50.658;4.608;2022-08-25T07:32:42;3.88;;;1.77;;
71296;SDS011;59082;50.658;4.608;2022-08-25T07:35:07;4.93;;;2.00;;
71296;SDS011;59082;50.658;4.608;2022-08-25T07:37:47;6.20;;;1.80;;
71296;SDS011;59082;50.658;4.608;2022-08-25T07:40:15;5.50;;;1.90;;
71296;SDS011;59082;50.658;4.608;2022-08-25T07:42:50;6.30;;;1.73;;
71296;SDS011;59082;50.658;4.608;2022-08-25T07:45:17;2.88;;;1.52;;
71296;SDS011;59082;50.658;4.608;2022-08-25T07:47:43;6.28;;;1.98;;
71296;SDS011;59082;50.658;4.608;2022-08-25T07:50:09;10.90;;;1.90;;
71296;SDS011;59082;50.658;4.608;2022-08-25T07:52:36;8.35;;;2.15;;
71296;SDS011;59082;50.658;4.608;2022-08-25T07:55:03;5.35;;;1.80;;
71296;SDS011;59082;50.658;4.608;2022-08-25T07:57:30;5.68;;;2.15;;
71296;SDS011;59082;50.658;4.608;2022-08-25T07:59:56;4.63;;;2.03;;
71296;SDS011;59082;50.658;4.608;2022-08-25T08:02:22;5.60;;;1.75;;
71296;SDS011;59082;50.658;4.608;2022-08-25T08:04:48;6.27;;;1.73;;
71296;SDS011;59082;50.658;4.608;2022-08-25T08:07:19;5.55;;;1.65;;
71296;SDS011;59082;50.658;4.608;2022-08-25T08:09:47;3.78;;;1.70;;
71296;SDS011;59082;50.658;4.608;2022-08-25T08:12:12;5.80;;;1.50;;
71296;SDS011;59082;50.658;4.608;2022-08-25T08:14:38;4.85;;;1.48;;
71296;SDS011;59082;50.658;4.608;2022-08-25T08:17:04;4.33;;;1.80;;
71296;SDS011;59082;50.658;4.608;2022-08-25T08:19:32;4.70;;;1.50;;
71296;SDS011;59082;50.658;4.608;2022-08-25T08:21:58;7.82;;;1.60;;
71296;SDS011;59082;50.658;4.608;2022-08-25T08:24:24;5.97;;;1.45;;
71296;SDS011;59082;50.658;4.608;2022-08-25T08:26:50;3.97;;;1.40;;
71296;SDS011;59082;50.658;4.608;2022-08-25T08:29:15;8.77;;;2.13;;
71296;SDS011;59082;50.658;4.608;2022-08-25T08:31:44;4.97;;;1.30;;
71296;SDS011;59082;50.658;4.608;2022-08-25T08:34:09;3.33;;;1.55;;
71296;SDS011;59082;50.658;4.608;2022-08-25T08:36:35;4.10;;;1.40;;
71296;SDS011;59082;50.658;4.608;2022-08-25T08:39:00;6.00;;;1.40;;
71296;SDS011;59082;50.658;4.608;2022-08-25T08:44:27;2.57;;;1.20;;
71296;SDS011;59082;50.658;4.608;2022-08-25T08:52:26;3.22;;;1.40;;
71296;SDS011;59082;50.658;4.608;2022-08-25T08:55:01;4.32;;;1.48;;
71296;SDS011;59082;50.658;4.608;2022-08-25T08:57:30;2.63;;;1.20;;
71296;SDS011;59082;50.658;4.608;2022-08-25T09:00:04;5.10;;;1.10;;
71296;SDS011;59082;50.658;4.608;2022-08-25T09:02:32;3.75;;;1.10;;
71296;SDS011;59082;50.658;4.608;2022-08-25T09:05:12;2.95;;;1.20;;
71296;SDS011;59082;50.658;4.608;2022-08-25T09:07:44;4.63;;;1.27;;
71296;SDS011;59082;50.658;4.608;2022-08-25T09:10:12;2.17;;;0.90;;
71296;SDS011;59082;50.658;4.608;2022-08-25T09:12:42;4.70;;;1.33;;
71296;SDS011;59082;50.658;4.608;2022-08-25T09:21:29;2.83;;;1.20;;
71296;SDS011;59082;50.658;4.608;2022-08-25T09:26:48;3.38;;;1.00;;
71296;SDS011;59082;50.658;4.608;2022-08-25T09:29:29;4.82;;;0.90;;
71296;SDS011;59082;50.658;4.608;2022-08-25T09:32:17;6.28;;;1.42;;
71296;SDS011;59082;50.658;4.608;2022-08-25T09:34:43;6.00;;;0.70;;
71296;SDS011;59082;50.658;4.608;2022-08-25T09:37:10;3.80;;;1.00;;
71296;SDS011;59082;50.658;4.608;2022-08-25T09:39:35;9.70;;;1.50;;
71296;SDS011;59082;50.658;4.608;2022-08-25T09:42:03;2.23;;;1.00;;
71296;SDS011;59082;50.658;4.608;2022-08-25T09:44:33;2.03;;;1.33;;
71296;SDS011;59082;50.658;4.608;2022-08-25T09:49:45;3.10;;;1.10;;
71296;SDS011;59082;50.658;4.608;2022-08-25T09:52:18;3.65;;;0.80;;
71296;SDS011;59082;50.658;4.608;2022-08-25T09:54:48;1.97;;;0.93;;
71296;SDS011;59082;50.658;4.608;2022-08-25T09:57:36;3.63;;;0.80;;
71296;SDS011;59082;50.658;4.608;2022-08-25T10:03:06;3.70;;;1.08;;
71296;SDS011;59082;50.658;4.608;2022-08-25T10:05:37;4.22;;;1.20;;
71296;SDS011;59082;50.658;4.608;2022-08-25T10:08:21;3.40;;;0.90;;
71296;SDS011;59082;50.658;4.608;2022-08-25T10:10:59;1.88;;;0.65;;
71296;SDS011;59082;50.658;4.608;2022-08-25T10:13:38;3.95;;;0.88;;
71296;SDS011;59082;50.658;4.608;2022-08-25T10:16:23;2.33;;;0.80;;
71296;SDS011;59082;50.658;4.608;2022-08-25T10:19:10;4.22;;;1.08;;
71296;SDS011;59082;50.658;4.608;2022-08-25T10:21:46;2.40;;;0.77;;
71296;SDS011;59082;50.658;4.608;2022-08-25T10:24:27;3.80;;;1.20;;
71296;SDS011;59082;50.658;4.608;2022-08-25T10:35:31;2.13;;;0.70;;
71296;SDS011;59082;50.658;4.608;2022-08-25T10:38:17;3.47;;;0.80;;
71296;SDS011;59082;50.658;4.608;2022-08-25T10:40:59;1.33;;;0.70;;
71296;SDS011;59082;50.658;4.608;2022-08-25T11:00:17;1.65;;;0.80;;
71296;SDS011;59082;50.658;4.608;2022-08-25T11:10:41;2.22;;;0.90;;
71296;SDS011;59082;50.658;4.608;2022-08-25T11:13:14;2.42;;;0.85;;
71296;SDS011;59082;50.658;4.608;2022-08-25T11:15:54;3.78;;;0.52;;
71296;SDS011;59082;50.658;4.608;2022-08-25T11:18:25;1.55;;;0.40;;
71296;SDS011;59082;50.658;4.608;2022-08-25T11:23:29;3.95;;;0.50;;
71296;SDS011;59082;50.658;4.608;2022-08-25T11:26:06;1.85;;;1.10;;
71296;SDS011;59082;50.658;4.608;2022-08-25T11:28:50;3.10;;;0.82;;
71296;SDS011;59082;50.658;4.608;2022-08-25T11:31:21;2.45;;;1.08;;
71296;SDS011;59082;50.658;4.608;2022-08-25T11:33:48;1.63;;;0.80;;
71296;SDS011;59082;50.658;4.608;2022-08-25T11:36:36;2.42;;;0.63;;
71296;SDS011;59082;50.658;4.608;2022-08-25T11:47:49;3.27;;;0.40;;
71296;SDS011;59082;50.658;4.608;2022-08-25T11:53:16;1.30;;;0.90;;
71296;SDS011;59082;50.658;4.608;2022-08-25T11:55:45;2.92;;;0.43;;
71296;SDS011;59082;50.658;4.608;2022-08-25T11:58:21;3.53;;;0.75;;
71296;SDS011;59082;50.658;4.608;2022-08-25T12:00:57;1.93;;;0.50;;
71296;SDS011;59082;50.658;4.608;2022-08-25T12:14:52;3.33;;;1.20;;
71296;SDS011;59082;50.658;4.608;2022-08-25T12:27:51;2.15;;;0.90;;
71296;SDS011;59082;50.658;4.608;2022-08-25T12:38:14;4.30;;;0.70;;
71296;SDS011;59082;50.658;4.608;2022-08-25T12:45:47;1.90;;;0.70;;
71296;SDS011;59082;50.658;4.608;2022-08-25T12:51:01;1.48;;;0.55;;
71296;SDS011;59082;50.658;4.608;2022-08-25T12:56:49;4.25;;;0.80;;
71296;SDS011;59082;50.658;4.608;2022-08-25T13:01:32;2.30;;;0.77;;
71296;SDS011;59082;50.658;4.608;2022-08-25T13:04:21;3.05;;;0.82;;
71296;SDS011;59082;50.658;4.608;2022-08-25T13:07:06;2.20;;;0.70;;
71296;SDS011;59082;50.658;4.608;2022-08-25T13:14:59;1.80;;;0.67;;
71296;SDS011;59082;50.658;4.608;2022-08-25T13:17:29;2.03;;;0.90;;
71296;SDS011;59082;50.658;4.608;2022-08-25T13:22:42;5.68;;;1.00;;
71296;SDS011;59082;50.658;4.608;2022-08-25T13:25:14;5.95;;;0.80;;
71296;SDS011;59082;50.658;4.608;2022-08-25T13:27:52;2.90;;;0.60;;
71296;SDS011;59082;50.658;4.608;2022-08-25T13:30:26;3.85;;;0.77;;
71296;SDS011;59082;50.658;4.608;2022-08-25T13:32:56;1.63;;;0.70;;
71296;SDS011;59082;50.658;4.608;2022-08-25T13:37:50;1.25;;;0.20;;
71296;SDS011;59082;50.658;4.608;2022-08-25T13:40:23;3.22;;;0.73;;
71296;SDS011;59082;50.658;4.608;2022-08-25T13:42:55;2.72;;;0.70;;
71296;SDS011;59082;50.658;4.608;2022-08-25T13:45:24;2.77;;;0.20;;
71296;SDS011;59082;50.658;4.608;2022-08-25T13:47:53;1.58;;;0.40;;
71296;SDS011;59082;50.658;4.608;2022-08-25T13:56:09;2.88;;;0.50;;
71296;SDS011;59082;50.658;4.608;2022-08-25T13:58:17;2.30;;;0.70;;
71296;SDS011;59082;50.658;4.608;2022-08-25T14:00:46;4.18;;;1.05;;
71296;SDS011;59082;50.658;4.608;2022-08-25T14:03:37;2.97;;;0.75;;
71296;SDS011;59082;50.658;4.608;2022-08-25T14:06:19;2.60;;;2.40;;
71296;SDS011;59082;50.658;4.608;2022-08-25T14:13:58;2.75;;;1.38;;
71296;SDS011;59082;50.658;4.608;2022-08-25T14:16:27;2.15;;;1.10;;
71296;SDS011;59082;50.658;4.608;2022-08-25T14:18:57;3.63;;;1.20;;
71296;SDS011;59082;50.658;4.608;2022-08-25T14:21:27;4.10;;;1.73;;
71296;SDS011;59082;50.658;4.608;2022-08-25T14:23:54;3.17;;;0.90;;
71296;SDS011;59082;50.658;4.608;2022-08-25T14:26:21;1.70;;;1.08;;
71296;SDS011;59082;50.658;4.608;2022-08-25T14:28:46;4.97;;;1.20;;
71296;SDS011;59082;50.658;4.608;2022-08-25T14:31:15;4.72;;;0.30;;
71296;SDS011;59082;50.658;4.608;2022-08-25T14:33:57;2.30;;;1.20;;
71296;SDS011;59082;50.658;4.608;2022-08-25T14:36:27;3.42;;;1.00;;
71296;SDS011;59082;50.658;4.608;2022-08-25T14:38:54;2.78;;;0.55;;
71296;SDS011;59082;50.658;4.608;2022-08-25T14:41:20;1.63;;;1.05;;
71296;SDS011;59082;50.658;4.608;2022-08-25T14:43:47;2.07;;;0.93;;
71296;SDS011;59082;50.658;4.608;2022-08-25T14:46:33;5.72;;;0.90;;
71296;SDS011;59082;50.658;4.608;2022-08-25T14:49:05;2.03;;;1.10;;
71296;SDS011;59082;50.658;4.608;2022-08-25T14:51:33;1.40;;;0.90;;
71296;SDS011;59082;50.658;4.608;2022-08-25T14:54:03;2.10;;;0.75;;
71296;SDS011;59082;50.658;4.608;2022-08-25T14:56:31;1.37;;;0.60;;
71296;SDS011;59082;50.658;4.608;2022-08-25T14:58:57;5.00;;;1.00;;
71296;SDS011;59082;50.658;4.608;2022-08-25T15:01:23;3.92;;;0.52;;
71296;SDS011;59082;50.658;4.608;2022-08-25T15:03:51;2.72;;;0.40;;
71296;SDS011;59082;50.658;4.608;2022-08-25T15:06:19;2.42;;;0.77;;
71296;SDS011;59082;50.658;4.608;2022-08-25T15:08:45;1.23;;;0.53;;
71296;SDS011;59082;50.658;4.608;2022-08-25T15:11:29;5.30;;;1.50;;
71296;SDS011;59082;50.658;4.608;2022-08-25T15:13:56;1.73;;;1.20;;
71296;SDS011;59082;50.658;4.608;2022-08-25T15:16:29;2.40;;;1.00;;
71296;SDS011;59082;50.658;4.608;2022-08-25T15:18:56;14.35;;;1.17;;
71296;SDS011;59082;50.658;4.608;2022-08-25T15:21:22;6.85;;;1.50;;
71296;SDS011;59082;50.658;4.608;2022-08-25T15:23:48;4.93;;;1.60;;
71296;SDS011;59082;50.658;4.608;2022-08-25T15:26:14;3.33;;;0.80;;
71296;SDS011;59082;50.658;4.608;2022-08-25T15:28:42;2.67;;;0.77;;
71296;SDS011;59082;50.658;4.608;2022-08-25T15:31:10;2.87;;;0.60;;
71296;SDS011;59082;50.658;4.608;2022-08-25T15:33:36;4.60;;;1.00;;
71296;SDS011;59082;50.658;4.608;2022-08-25T15:36:03;2.60;;;1.52;;
71296;SDS011;59082;50.658;4.608;2022-08-25T15:38:31;4.18;;;1.52;;
71296;SDS011;59082;50.658;4.608;2022-08-25T15:40:57;5.40;;;1.83;;
71296;SDS011;59082;50.658;4.608;2022-08-25T15:43:22;3.97;;;1.73;;
71296;SDS011;59082;50.658;4.608;2022-08-25T15:45:48;5.68;;;1.90;;
71296;SDS011;59082;50.658;4.608;2022-08-25T15:48:14;6.20;;;2.13;;
71296;SDS011;59082;50.658;4.608;2022-08-25T15:50:39;5.97;;;2.17;;
71296;SDS011;59082;50.658;4.608;2022-08-25T15:53:04;6.57;;;2.27;;
71296;SDS011;59082;50.658;4.608;2022-08-25T15:55:30;7.90;;;2.33;;
71296;SDS011;59082;50.658;4.608;2022-08-25T15:57:55;7.78;;;2.50;;
71296;SDS011;59082;50.658;4.608;2022-08-25T16:00:21;6.23;;;2.43;;
71296;SDS011;59082;50.658;4.608;2022-08-25T16:02:47;6.67;;;2.27;;
71296;SDS011;59082;50.658;4.608;2022-08-25T16:05:12;4.65;;;2.25;;
71296;SDS011;59082;50.658;4.608;2022-08-25T16:07:39;6.45;;;2.60;;
71296;SDS011;59082;50.658;4.608;2022-08-25T16:10:05;4.73;;;2.50;;
71296;SDS011;59082;50.658;4.608;2022-08-25T16:12:30;8.52;;;2.53;;
71296;SDS011;59082;50.658;4.608;2022-08-25T16:14:56;4.80;;;2.73;;
71296;SDS011;59082;50.658;4.608;2022-08-25T16:17:21;4.88;;;2.97;;
71296;SDS011;59082;50.658;4.608;2022-08-25T16:19:47;6.67;;;2.80;;
71296;SDS011;59082;50.658;4.608;2022-08-25T16:22:13;5.03;;;3.40;;
71296;SDS011;59082;50.658;4.608;2022-08-25T16:24:39;5.97;;;3.33;;
71296;SDS011;59082;50.658;4.608;2022-08-25T16:27:05;9.95;;;4.20;;
71296;SDS011;59082;50.658;4.608;2022-08-25T16:29:33;10.00;;;4.00;;
71296;SDS011;59082;50.658;4.608;2022-08-25T16:31:59;4.93;;;4.13;;
71296;SDS011;59082;50.658;4.608;2022-08-25T16:34:24;9.20;;;4.90;;
71296;SDS011;59082;50.658;4.608;2022-08-25T16:36:50;6.15;;;4.90;;
71296;SDS011;59082;50.658;4.608;2022-08-25T16:39:17;9.30;;;6.00;;
71296;SDS011;59082;50.658;4.608;2022-08-25T16:41:43;8.05;;;5.40;;
71296;SDS011;59082;50.658;4.608;2022-08-25T16:44:09;7.20;;;5.00;;
71296;SDS011;59082;50.658;4.608;2022-08-25T16:46:34;9.43;;;4.43;;
71296;SDS011;59082;50.658;4.608;2022-08-25T16:49:02;8.75;;;5.00;;
71296;SDS011;59082;50.658;4.608;2022-08-25T16:51:29;6.35;;;5.10;;
71296;SDS011;59082;50.658;4.608;2022-08-25T16:53:55;10.57;;;4.88;;
71296;SDS011;59082;50.658;4.608;2022-08-25T16:56:40;9.02;;;4.80;;
71296;SDS011;59082;50.658;4.608;2022-08-25T16:59:06;8.87;;;5.50;;
71296;SDS011;59082;50.658;4.608;2022-08-25T17:01:33;11.50;;;6.70;;
71296;SDS011;59082;50.658;4.608;2022-08-25T17:03:59;11.60;;;7.80;;
71296;SDS011;59082;50.658;4.608;2022-08-25T17:06:26;14.70;;;7.57;;
71296;SDS011;59082;50.658;4.608;2022-08-25T17:08:53;13.43;;;7.75;;
71296;SDS011;59082;50.658;4.608;2022-08-25T17:11:21;8.77;;;7.30;;
71296;SDS011;59082;50.658;4.608;2022-08-25T17:13:49;9.82;;;6.78;;